createdAt,value
2023-03-08T00:00:03.098Z,1008.87
2023-03-08T00:05:03.238Z,1008.85
2023-03-08T00:10:03.071Z,1008.83
2023-03-08T00:15:03.127Z,1008.69
2023-03-08T00:20:03.109Z,1008.64
2023-03-08T00:25:03.011Z,1008.62
2023-03-08T00:30:03.235Z,1008.65
2023-03-08T00:35:03.109Z,1008.71
2023-03-08T00:40:03.370Z,1008.9
2023-03-08T00:45:03.013Z,1009.04
2023-03-08T00:50:03.158Z,1009.18
2023-03-08T00:55:04.127Z,1009.31
2023-03-08T01:00:03.215Z,1009.35
2023-03-08T01:05:03.133Z,1009.47
2023-03-08T01:10:03.250Z,1009.63
2023-03-08T01:15:03.122Z,1009.63
2023-03-08T01:20:03.070Z,1009.44
2023-03-08T01:25:03.018Z,1009.34
2023-03-08T01:30:03.090Z,1009.42
2023-03-08T01:35:03.058Z,1009.25
2023-03-08T01:40:03.136Z,1009.28
2023-03-08T01:45:03.096Z,1009.14
2023-03-08T01:50:03.187Z,1009.08
2023-03-08T01:55:03.051Z,1009.23
2023-03-08T02:00:03.117Z,1009.28
2023-03-08T02:05:02.990Z,1009.28
2023-03-08T02:10:03.172Z,1009.38
2023-03-08T02:15:03.173Z,1009.4
2023-03-08T02:20:03.161Z,1009.38
2023-03-08T02:25:03.081Z,1009.37
2023-03-08T02:30:03.112Z,1009.42
2023-03-08T02:35:03.068Z,1009.31
2023-03-08T02:40:03.169Z,1009.32
2023-03-08T02:45:03.074Z,1009.36
2023-03-08T02:50:03.099Z,1009.32
2023-03-08T02:55:03.061Z,1009.31
2023-03-08T03:00:03.096Z,1009.4
2023-03-08T03:05:03.070Z,1009.66
2023-03-08T03:10:03.054Z,1009.67
2023-03-08T03:15:03.012Z,1009.68
2023-03-08T03:20:03.176Z,1009.68
2023-03-08T03:25:03.055Z,1009.56
2023-03-08T03:30:03.209Z,1009.5
2023-03-08T03:35:05.028Z,1009.63
2023-03-08T03:40:03.077Z,1009.61
2023-03-08T03:45:03.123Z,1009.58
2023-03-08T03:50:03.201Z,1009.67
2023-03-08T03:55:02.997Z,1009.57
2023-03-08T04:00:03.110Z,1009.49
2023-03-08T04:05:03.079Z,1009.58
2023-03-08T04:10:04.337Z,1009.65
2023-03-08T04:15:03.004Z,1009.61
2023-03-08T04:20:03.139Z,1009.66
2023-03-08T04:25:03.009Z,1009.73
2023-03-08T04:30:03.172Z,1009.67
2023-03-08T04:35:03.094Z,1009.56
2023-03-08T04:40:03.228Z,1009.58
2023-03-08T04:45:03.009Z,1009.56
2023-03-08T04:50:03.263Z,1009.56
2023-03-08T04:55:03.006Z,1009.52
2023-03-08T05:00:03.303Z,1009.54
2023-03-08T05:05:03.102Z,1009.54
2023-03-08T05:10:03.257Z,1009.33
2023-03-08T05:15:02.996Z,1009.41
2023-03-08T05:20:03.130Z,1009.39
2023-03-08T05:25:03.414Z,1009.27
2023-03-08T05:30:03.096Z,1009.09
2023-03-08T05:35:03.040Z,1008.96
2023-03-08T05:40:04.200Z,1008.96
2023-03-08T05:45:03.100Z,1008.86
2023-03-08T05:50:03.085Z,1008.78
2023-03-08T05:55:03.060Z,1008.79
2023-03-08T06:00:03.069Z,1008.71
2023-03-08T06:05:03.124Z,1008.65
2023-03-08T06:10:03.104Z,1008.57
2023-03-08T06:15:07.692Z,1008.42
2023-03-08T06:20:06.833Z,1008.41
2023-03-08T06:25:03.329Z,1008.41
2023-03-08T06:30:03.877Z,1008.54
2023-03-08T06:35:03.197Z,1008.55
2023-03-08T06:40:03.950Z,1008.47
2023-03-08T06:45:03.221Z,1008.49
2023-03-08T06:50:04.057Z,1008.37
2023-03-08T06:55:03.292Z,1008.33
2023-03-08T07:00:04.053Z,1008.28
2023-03-08T07:05:03.130Z,1008.13
2023-03-08T07:10:04.071Z,1008.24
2023-03-08T07:15:03.184Z,1008.41
2023-03-08T07:20:03.822Z,1008.56
2023-03-08T07:25:03.090Z,1008.73
2023-03-08T07:30:06.535Z,1008.98
2023-03-08T07:35:03.114Z,1009.0
2023-03-08T07:40:03.996Z,1008.89
2023-03-08T07:45:03.174Z,1009.16
2023-03-08T07:50:03.917Z,1009.51
2023-03-08T07:55:03.297Z,1009.53
2023-03-08T08:00:03.980Z,1009.6
2023-03-08T08:05:03.184Z,1009.79
2023-03-08T08:10:04.031Z,1009.73
2023-03-08T08:15:03.389Z,1009.88
2023-03-08T08:20:04.052Z,1009.86
2023-03-08T08:25:03.263Z,1009.83
2023-03-08T08:30:03.862Z,1009.91
2023-03-08T08:35:03.102Z,1009.92
2023-03-08T08:40:03.994Z,1009.99
2023-03-08T08:45:03.187Z,1010.08
2023-03-08T08:50:03.961Z,1010.18
2023-03-08T08:55:03.405Z,1010.25
2023-03-08T09:00:03.971Z,1010.28
2023-03-08T09:05:03.230Z,1010.3
2023-03-08T09:10:03.933Z,1010.36
2023-03-08T09:15:03.221Z,1010.42
2023-03-08T09:20:03.943Z,1010.49
2023-03-08T09:25:03.464Z,1010.51
2023-03-08T09:30:03.956Z,1010.58
2023-03-08T09:35:03.136Z,1010.56
2023-03-08T09:40:03.971Z,1010.65
2023-03-08T09:45:03.207Z,1010.59
2023-03-08T09:50:04.078Z,1010.56
2023-03-08T09:55:03.315Z,1010.5
2023-03-08T10:00:03.963Z,1010.5
2023-03-08T10:05:12.639Z,1010.56
2023-03-08T10:10:03.704Z,1010.63
2023-03-08T10:15:03.222Z,1010.62
2023-03-08T10:20:03.934Z,1010.64
2023-03-08T10:25:03.087Z,1010.65
2023-03-08T10:30:03.950Z,1010.75
2023-03-08T10:35:03.135Z,1010.99
2023-03-08T10:40:04.105Z,1011.2
2023-03-08T10:45:03.210Z,1011.27
2023-03-08T10:50:04.002Z,1011.27
2023-03-08T10:55:03.251Z,1011.29
2023-03-08T11:00:04.211Z,1011.29
2023-03-08T11:05:03.231Z,1011.26
2023-03-08T11:10:03.913Z,1011.27
2023-03-08T11:15:03.286Z,1011.3
2023-03-08T11:20:04.040Z,1011.32
2023-03-08T11:25:03.061Z,1011.24
2023-03-08T11:30:04.019Z,1011.3
2023-03-08T11:35:03.182Z,1011.26
2023-03-08T11:40:03.892Z,1011.07
2023-03-08T11:45:03.166Z,1011.03
2023-03-08T11:50:03.876Z,1010.87
2023-03-08T11:55:03.291Z,1010.85
2023-03-08T12:00:04.041Z,1010.78
2023-03-08T12:05:03.417Z,1010.8
2023-03-08T12:10:04.220Z,1010.83
2023-03-08T12:15:03.281Z,1010.8
2023-03-08T12:20:03.991Z,1010.77
2023-03-08T12:25:03.372Z,1010.8
2023-03-08T12:30:03.968Z,1010.73
2023-03-08T12:35:03.124Z,1010.68
2023-03-08T12:40:04.047Z,1010.68
2023-03-08T12:45:03.176Z,1010.67
2023-03-08T12:50:03.919Z,1010.76
2023-03-08T12:55:03.347Z,1010.88
2023-03-08T13:00:03.881Z,1010.92
2023-03-08T13:05:03.463Z,1010.98
2023-03-08T13:10:03.881Z,1010.94
2023-03-08T13:15:03.255Z,1010.92
2023-03-08T13:20:03.950Z,1010.89
2023-03-08T13:25:03.360Z,1010.92
2023-03-08T13:30:04.168Z,1010.91
2023-03-08T13:35:03.131Z,1010.9
2023-03-08T13:40:04.271Z,1010.86
2023-03-08T13:45:03.257Z,1010.76
2023-03-08T13:50:03.974Z,1010.81
2023-03-08T13:55:03.352Z,1010.84
2023-03-08T14:00:04.007Z,1010.86
2023-03-08T14:05:03.486Z,1010.87
2023-03-08T14:10:04.133Z,1010.87
2023-03-08T14:15:03.288Z,1010.93
2023-03-08T14:20:04.044Z,1010.89
2023-03-08T14:25:03.359Z,1010.9
2023-03-08T14:30:04.125Z,1010.88
2023-03-08T14:35:03.182Z,1010.78
2023-03-08T14:40:06.606Z,1010.86
2023-03-08T14:45:03.172Z,1010.87
2023-03-08T14:50:04.010Z,1010.87
2023-03-08T14:55:03.483Z,1010.89
2023-03-08T15:00:03.985Z,1010.88
2023-03-08T15:05:03.188Z,1010.9
2023-03-08T15:10:03.977Z,1010.93
2023-03-08T15:15:03.282Z,1010.93
2023-03-08T15:20:04.283Z,1011.08
2023-03-08T15:25:03.340Z,1011.09
2023-03-08T15:30:04.211Z,1011.07
2023-03-08T15:35:03.232Z,1011.09
2023-03-08T15:40:04.252Z,1011.07
2023-03-08T15:45:03.383Z,1011.04
2023-03-08T15:50:04.114Z,1010.92
2023-03-08T15:55:03.304Z,1010.88
2023-03-08T16:00:04.097Z,1010.78
2023-03-08T16:05:03.324Z,1010.74
2023-03-08T16:10:04.298Z,1010.66
2023-03-08T16:15:03.338Z,1010.63
2023-03-08T16:20:04.141Z,1010.63
2023-03-08T16:25:03.301Z,1010.61
2023-03-08T16:30:04.107Z,1010.6
2023-03-08T16:35:03.353Z,1010.57
2023-03-08T16:40:04.078Z,1010.51
2023-03-08T16:45:03.279Z,1010.52
2023-03-08T16:50:04.213Z,1010.58
2023-03-08T16:55:03.273Z,1010.68
2023-03-08T17:00:04.158Z,1010.68
2023-03-08T17:05:03.136Z,1010.61
2023-03-08T17:10:04.072Z,1010.59
2023-03-08T17:15:03.192Z,1010.5
2023-03-08T17:20:04.190Z,1010.36
2023-03-08T17:25:03.267Z,1010.28
2023-03-08T17:30:04.983Z,1010.23
2023-03-08T17:35:03.086Z,1010.29
2023-03-08T17:40:03.990Z,1010.29
2023-03-08T17:45:03.244Z,1010.23
2023-03-08T17:50:04.131Z,1010.18
2023-03-08T17:55:03.145Z,1010.07
2023-03-08T18:00:04.185Z,1009.95
2023-03-08T18:05:03.125Z,1009.83
2023-03-08T18:10:03.962Z,1009.72
2023-03-08T18:15:03.189Z,1009.59
2023-03-08T18:20:04.058Z,1009.54
2023-03-08T18:25:03.381Z,1009.43
2023-03-08T18:30:04.178Z,1009.38
2023-03-08T18:35:04.089Z,1009.35
2023-03-08T18:40:04.009Z,1009.37
2023-03-08T18:45:03.427Z,1009.39
2023-03-08T18:50:04.265Z,1009.38
2023-03-08T18:55:03.267Z,1009.38
2023-03-08T19:00:04.075Z,1009.42
2023-03-08T19:05:03.097Z,1009.39
2023-03-08T19:10:04.080Z,1009.32
2023-03-08T19:15:03.228Z,1009.32
2023-03-08T19:20:04.079Z,1009.34
2023-03-08T19:25:03.248Z,1009.34
2023-03-08T19:30:04.322Z,1009.35
2023-03-08T19:35:03.385Z,1009.35
2023-03-08T19:40:04.079Z,1009.33
2023-03-08T19:45:03.285Z,1009.4
2023-03-08T19:50:03.944Z,1009.43
2023-03-08T19:55:03.243Z,1009.44
2023-03-08T20:00:04.286Z,1009.47
2023-03-08T20:05:03.171Z,1009.49
2023-03-08T20:10:15.306Z,1009.49
2023-03-08T20:15:03.174Z,1009.46
2023-03-08T20:20:04.081Z,1009.42
2023-03-08T20:25:03.285Z,1009.38
2023-03-08T20:30:04.116Z,1009.47
2023-03-08T20:35:03.072Z,1009.55
2023-03-08T20:40:04.097Z,1009.52
2023-03-08T20:45:03.199Z,1009.54
2023-03-08T20:50:04.113Z,1009.55
2023-03-08T20:55:03.288Z,1009.54
2023-03-08T21:00:03.954Z,1009.57
2023-03-08T21:05:03.288Z,1009.56
2023-03-08T21:10:03.947Z,1009.58
2023-03-08T21:15:05.052Z,1009.7
2023-03-08T21:20:03.982Z,1009.72
2023-03-08T21:25:03.201Z,1009.74
2023-03-08T21:30:04.016Z,1009.76
2023-03-08T21:35:03.096Z,1009.77
2023-03-08T21:40:04.063Z,1009.84
2023-03-08T21:45:03.170Z,1009.91
2023-03-08T21:50:04.046Z,1010.03
2023-03-08T21:55:03.229Z,1010.08
2023-03-08T22:00:04.036Z,1010.14
2023-03-08T22:05:03.094Z,1010.23
2023-03-08T22:10:05.113Z,1010.22
2023-03-08T22:15:03.151Z,1010.2
2023-03-08T22:20:03.879Z,1010.23
2023-03-08T22:25:03.194Z,1010.26
2023-03-08T22:30:03.999Z,1010.27
2023-03-08T22:35:03.313Z,1010.3
2023-03-08T22:40:03.957Z,1010.33
2023-03-08T22:45:03.187Z,1010.35
2023-03-08T22:50:04.036Z,1010.33
2023-03-08T22:55:03.390Z,1010.35
2023-03-08T23:00:04.110Z,1010.4
2023-03-08T23:05:03.298Z,1010.51
2023-03-08T23:10:04.082Z,1010.56
2023-03-08T23:15:03.138Z,1010.71
2023-03-08T23:20:04.125Z,1010.8
2023-03-08T23:25:04.011Z,1010.95
2023-03-08T23:30:04.430Z,1011.11
2023-03-08T23:35:03.299Z,1011.15
2023-03-08T23:40:04.150Z,1011.24
2023-03-08T23:45:03.167Z,1011.3
2023-03-08T23:50:04.167Z,1011.42
2023-03-08T23:55:03.527Z,1011.58
